sensor_id;sensor_type;location;lat;lon;timestamp;pressure;altitude;pressure_sealevel;temperature;humidity
33454;BME280;39400;49.744;7.012;2022-09-12T00:01:23;96100.31;;;14.13;100.00
33454;BME280;39400;49.744;7.012;2022-09-12T00:03:53;96102.97;;;13.90;100.00
33454;BME280;39400;49.744;7.012;2022-09-12T00:06:23;96100.75;;;13.74;100.00
33454;BME280;39400;49.744;7.012;2022-09-12T00:08:53;96098.91;;;13.98;100.00
33454;BME280;39400;49.744;7.012;2022-09-12T00:11:21;96094.47;;;14.08;100.00
33454;BME280;39400;49.744;7.012;2022-09-12T00:13:48;96092.22;;;13.95;100.00
33454;BME280;39400;49.744;7.012;2022-09-12T00:16:21;96097.50;;;13.83;100.00
33454;BME280;39400;49.744;7.012;2022-09-12T00:18:48;96090.25;;;13.96;100.00
33454;BME280;39400;49.744;7.012;2022-09-12T00:21:16;96085.38;;;14.07;100.00
33454;BME280;39400;49.744;7.012;2022-09-12T00:23:45;96084.28;;;13.63;100.00
33454;BME280;39400;49.744;7.012;2022-09-12T00:26:13;96087.78;;;13.67;100.00
33454;BME280;39400;49.744;7.012;2022-09-12T00:28:41;96096.00;;;13.74;100.00
33454;BME280;39400;49.744;7.012;2022-09-12T00:31:14;96094.59;;;13.59;100.00
33454;BME280;39400;49.744;7.012;2022-09-12T00:33:42;96092.34;;;13.85;100.00
33454;BME280;39400;49.744;7.012;2022-09-12T00:36:13;96083.97;;;13.92;100.00
33454;BME280;39400;49.744;7.012;2022-09-12T00:38:42;96084.28;;;13.63;100.00
33454;BME280;39400;49.744;7.012;2022-09-12T00:43:44;96083.34;;;13.77;100.00
33454;BME280;39400;49.744;7.012;2022-09-12T00:46:18;96082.88;;;13.86;100.00
33454;BME280;39400;49.744;7.012;2022-09-12T00:51:31;96059.72;;;13.72;100.00
33454;BME280;39400;49.744;7.012;2022-09-12T00:54:04;96065.97;;;13.76;100.00
33454;BME280;39400;49.744;7.012;2022-09-12T00:56:32;96066.63;;;13.50;100.00
33454;BME280;39400;49.744;7.012;2022-09-12T00:59:04;96071.00;;;13.51;100.00
33454;BME280;39400;49.744;7.012;2022-09-12T01:01:35;96071.06;;;13.40;100.00
33454;BME280;39400;49.744;7.012;2022-09-12T01:04:02;96061.25;;;13.36;100.00
33454;BME280;39400;49.744;7.012;2022-09-12T01:06:39;96064.41;;;13.38;100.00
33454;BME280;39400;49.744;7.012;2022-09-12T01:09:07;96064.63;;;13.54;100.00
33454;BME280;39400;49.744;7.012;2022-09-12T01:11:36;96056.13;;;13.38;100.00
33454;BME280;39400;49.744;7.012;2022-09-12T01:14:05;96050.56;;;13.41;100.00
33454;BME280;39400;49.744;7.012;2022-09-12T01:16:35;96048.13;;;13.47;100.00
33454;BME280;39400;49.744;7.012;2022-09-12T01:19:07;96040.38;;;13.35;100.00
33454;BME280;39400;49.744;7.012;2022-09-12T01:22:06;96044.22;;;13.44;100.00
33454;BME280;39400;49.744;7.012;2022-09-12T01:38:54;96029.72;;;13.33;100.00
33454;BME280;39400;49.744;7.012;2022-09-12T01:50:08;96037.34;;;13.15;100.00
33454;BME280;39400;49.744;7.012;2022-09-12T01:52:41;96031.88;;;13.11;100.00
33454;BME280;39400;49.744;7.012;2022-09-12T01:57:54;96029.25;;;12.97;100.00
33454;BME280;39400;49.744;7.012;2022-09-12T02:00:23;96022.44;;;13.05;100.00
33454;BME280;39400;49.744;7.012;2022-09-12T02:03:00;96021.59;;;13.12;100.00
33454;BME280;39400;49.744;7.012;2022-09-12T02:05:34;96011.28;;;13.19;100.00
33454;BME280;39400;49.744;7.012;2022-09-12T02:08:09;96016.13;;;13.08;100.00
33454;BME280;39400;49.744;7.012;2022-09-12T02:10:44;96025.59;;;13.07;100.00
33454;BME280;39400;49.744;7.012;2022-09-12T02:13:30;96010.47;;;13.22;100.00
33454;BME280;39400;49.744;7.012;2022-09-12T02:16:06;96009.69;;;13.25;100.00
33454;BME280;39400;49.744;7.012;2022-09-12T02:18:45;96006.69;;;13.02;100.00
33454;BME280;39400;49.744;7.012;2022-09-12T02:21:13;96014.25;;;12.98;100.00
33454;BME280;39400;49.744;7.012;2022-09-12T02:23:47;96014.59;;;13.03;100.00
33454;BME280;39400;49.744;7.012;2022-09-12T02:26:22;96015.31;;;13.11;100.00
33454;BME280;39400;49.744;7.012;2022-09-12T02:28:52;96008.97;;;13.14;100.00
33454;BME280;39400;49.744;7.012;2022-09-12T02:31:21;96009.78;;;13.11;100.00
33454;BME280;39400;49.744;7.012;2022-09-12T02:34:09;95998.31;;;13.16;100.00
33454;BME280;39400;49.744;7.012;2022-09-12T02:39:26;96012.84;;;13.24;100.00
33454;BME280;39400;49.744;7.012;2022-09-12T02:41:55;96001.13;;;13.09;100.00
33454;BME280;39400;49.744;7.012;2022-09-12T02:44:26;95997.06;;;13.24;100.00
33454;BME280;39400;49.744;7.012;2022-09-12T02:47:04;96002.59;;;13.24;100.00
33454;BME280;39400;49.744;7.012;2022-09-12T02:49:33;96004.81;;;13.37;100.00
33454;BME280;39400;49.744;7.012;2022-09-12T02:52:00;96006.41;;;13.38;100.00
33454;BME280;39400;49.744;7.012;2022-09-12T02:54:28;96009.84;;;13.49;100.00
33454;BME280;39400;49.744;7.012;2022-09-12T02:56:56;96002.19;;;13.60;100.00
33454;BME280;39400;49.744;7.012;2022-09-12T02:59:24;96007.34;;;13.62;100.00
33454;BME280;39400;49.744;7.012;2022-09-12T03:02:39;96013.50;;;12.94;100.00
33454;BME280;39400;49.744;7.012;2022-09-12T03:10:27;95999.56;;;13.08;100.00
33454;BME280;39400;49.744;7.012;2022-09-12T03:21:10;95999.72;;;12.90;100.00
33454;BME280;39400;49.744;7.012;2022-09-12T03:29:08;96011.78;;;12.62;100.00
33454;BME280;39400;49.744;7.012;2022-09-12T03:31:36;96012.63;;;12.52;100.00
33454;BME280;39400;49.744;7.012;2022-09-12T03:34:05;96015.69;;;12.68;100.00
33454;BME280;39400;49.744;7.012;2022-09-12T03:36:32;96008.34;;;12.96;100.00
33454;BME280;39400;49.744;7.012;2022-09-12T03:38:59;96002.94;;;12.81;100.00
33454;BME280;39400;49.744;7.012;2022-09-12T03:41:26;96007.75;;;12.70;100.00
33454;BME280;39400;49.744;7.012;2022-09-12T03:43:53;95997.38;;;12.89;100.00
33454;BME280;39400;49.744;7.012;2022-09-12T03:46:22;95996.53;;;12.92;100.00
33454;BME280;39400;49.744;7.012;2022-09-12T03:48:50;95995.84;;;12.80;100.00
33454;BME280;39400;49.744;7.012;2022-09-12T03:51:17;95991.75;;;12.99;100.00
33454;BME280;39400;49.744;7.012;2022-09-12T03:53:44;95991.03;;;12.92;100.00
33454;BME280;39400;49.744;7.012;2022-09-12T03:56:11;95992.06;;;12.60;100.00
33454;BME280;39400;49.744;7.012;2022-09-12T03:58:39;95984.44;;;12.82;100.00
33454;BME280;39400;49.744;7.012;2022-09-12T04:01:15;95979.97;;;12.92;100.00
33454;BME280;39400;49.744;7.012;2022-09-12T04:03:45;95979.38;;;12.73;100.00
33454;BME280;39400;49.744;7.012;2022-09-12T04:06:15;95974.72;;;12.63;100.00
33454;BME280;39400;49.744;7.012;2022-09-12T04:08:43;95973.84;;;12.73;100.00
33454;BME280;39400;49.744;7.012;2022-09-12T04:11:14;95977.00;;;12.75;100.00
33454;BME280;39400;49.744;7.012;2022-09-12T04:13:42;95975.75;;;12.80;100.00
33454;BME280;39400;49.744;7.012;2022-09-12T04:16:11;95973.91;;;12.66;100.00
33454;BME280;39400;49.744;7.012;2022-09-12T04:18:39;95977.16;;;12.54;100.00
33454;BME280;39400;49.744;7.012;2022-09-12T04:21:08;95976.28;;;12.64;100.00
33454;BME280;39400;49.744;7.012;2022-09-12T04:23:35;95982.47;;;12.79;100.00
33454;BME280;39400;49.744;7.012;2022-09-12T04:26:03;95973.31;;;12.89;100.00
33454;BME280;39400;49.744;7.012;2022-09-12T04:28:33;95969.78;;;12.89;100.00
33454;BME280;39400;49.744;7.012;2022-09-12T04:31:03;95970.13;;;12.94;100.00
33454;BME280;39400;49.744;7.012;2022-09-12T04:33:31;95969.75;;;12.92;100.00
33454;BME280;39400;49.744;7.012;2022-09-12T04:36:07;95970.97;;;12.88;100.00
33454;BME280;39400;49.744;7.012;2022-09-12T04:38:35;95967.31;;;12.98;100.00
33454;BME280;39400;49.744;7.012;2022-09-12T04:41:10;95975.75;;;12.80;100.00
33454;BME280;39400;49.744;7.012;2022-09-12T04:43:38;95966.56;;;12.94;100.00
33454;BME280;39400;49.744;7.012;2022-09-12T04:46:07;95964.44;;;12.67;100.00
33454;BME280;39400;49.744;7.012;2022-09-12T04:48:35;95956.44;;;12.80;100.00
33454;BME280;39400;49.744;7.012;2022-09-12T04:51:32;95964.31;;;12.85;100.00
33454;BME280;39400;49.744;7.012;2022-09-12T04:54:03;95954.75;;;12.93;100.00
33454;BME280;39400;49.744;7.012;2022-09-12T04:56:31;95963.34;;;12.99;100.00
33454;BME280;39400;49.744;7.012;2022-09-12T04:58:59;95966.63;;;12.87;100.00
33454;BME280;39400;49.744;7.012;2022-09-12T05:01:28;95968.22;;;12.84;100.00
33454;BME280;39400;49.744;7.012;2022-09-12T05:03:57;95965.03;;;12.89;100.00
33454;BME280;39400;49.744;7.012;2022-09-12T05:06:26;95972.97;;;12.83;100.00
33454;BME280;39400;49.744;7.012;2022-09-12T05:08:54;95969.00;;;12.84;100.00
33454;BME280;39400;49.744;7.012;2022-09-12T05:11:24;95964.88;;;13.07;100.00
33454;BME280;39400;49.744;7.012;2022-09-12T05:14:12;95961.38;;;13.03;100.00
33454;BME280;39400;49.744;7.012;2022-09-12T05:16:39;95962.75;;;13.22;100.00
33454;BME280;39400;49.744;7.012;2022-09-12T05:19:09;95965.53;;;13.18;100.00
33454;BME280;39400;49.744;7.012;2022-09-12T05:21:37;95966.28;;;13.26;100.00
33454;BME280;39400;49.744;7.012;2022-09-12T05:24:04;95958.44;;;13.21;100.00
33454;BME280;39400;49.744;7.012;2022-09-12T05:26:32;95967.44;;;13.28;100.00
33454;BME280;39400;49.744;7.012;2022-09-12T05:28:59;95966.28;;;13.22;100.00
33454;BME280;39400;49.744;7.012;2022-09-12T05:31:27;95971.13;;;13.11;100.00
33454;BME280;39400;49.744;7.012;2022-09-12T05:33:55;95964.72;;;13.21;100.00
33454;BME280;39400;49.744;7.012;2022-09-12T05:36:27;95968.44;;;13.45;100.00
33454;BME280;39400;49.744;7.012;2022-09-12T05:38:55;95970.34;;;13.52;100.00
33454;BME280;39400;49.744;7.012;2022-09-12T05:41:25;95957.09;;;13.70;100.00
33454;BME280;39400;49.744;7.012;2022-09-12T05:43:55;95955.63;;;13.62;100.00
33454;BME280;39400;49.744;7.012;2022-09-12T05:46:29;95951.84;;;13.79;100.00
33454;BME280;39400;49.744;7.012;2022-09-12T05:48:56;95949.00;;;13.87;100.00
33454;BME280;39400;49.744;7.012;2022-09-12T05:51:30;95950.56;;;13.88;100.00
33454;BME280;39400;49.744;7.012;2022-09-12T05:53:59;95954.47;;;13.90;100.00
33454;BME280;39400;49.744;7.012;2022-09-12T05:56:28;95955.94;;;13.98;100.00
33454;BME280;39400;49.744;7.012;2022-09-12T05:59:05;95948.59;;;14.15;100.00
33454;BME280;39400;49.744;7.012;2022-09-12T06:01:34;95950.78;;;14.27;100.00
33454;BME280;39400;49.744;7.012;2022-09-12T06:04:03;95959.34;;;14.37;100.00
33454;BME280;39400;49.744;7.012;2022-09-12T06:06:35;95965.13;;;14.46;100.00
33454;BME280;39400;49.744;7.012;2022-09-12T06:09:04;95954.44;;;14.48;100.00
33454;BME280;39400;49.744;7.012;2022-09-12T06:11:33;95959.47;;;14.57;100.00
33454;BME280;39400;49.744;7.012;2022-09-12T06:14:01;95970.00;;;14.65;100.00
33454;BME280;39400;49.744;7.012;2022-09-12T06:16:31;95965.97;;;14.70;100.00
33454;BME280;39400;49.744;7.012;2022-09-12T06:19:01;95966.88;;;14.63;100.00
33454;BME280;39400;49.744;7.012;2022-09-12T06:21:29;95967.47;;;14.74;100.00
33454;BME280;39400;49.744;7.012;2022-09-12T06:23:57;95963.09;;;14.77;100.00
33454;BME280;39400;49.744;7.012;2022-09-12T06:26:25;95965.63;;;14.91;100.00
33454;BME280;39400;49.744;7.012;2022-09-12T06:28:54;95953.75;;;14.91;100.00
33454;BME280;39400;49.744;7.012;2022-09-12T06:31:27;95962.44;;;14.93;100.00
33454;BME280;39400;49.744;7.012;2022-09-12T06:33:57;95957.97;;;14.99;100.00
33454;BME280;39400;49.744;7.012;2022-09-12T06:36:31;95961.81;;;15.05;100.00
33454;BME280;39400;49.744;7.012;2022-09-12T06:39:00;95966.88;;;15.10;100.00
33454;BME280;39400;49.744;7.012;2022-09-12T06:41:29;95954.81;;;15.20;100.00
33454;BME280;39400;49.744;7.012;2022-09-12T06:43:57;95964.56;;;15.29;100.00
33454;BME280;39400;49.744;7.012;2022-09-12T06:46:26;95952.84;;;15.41;100.00
33454;BME280;39400;49.744;7.012;2022-09-12T06:48:57;95959.97;;;15.42;100.00
33454;BME280;39400;49.744;7.012;2022-09-12T06:51:26;95962.09;;;15.54;100.00
33454;BME280;39400;49.744;7.012;2022-09-12T06:53:55;95968.97;;;15.46;100.00
33454;BME280;39400;49.744;7.012;2022-09-12T06:56:25;95967.94;;;15.16;100.00
33454;BME280;39400;49.744;7.012;2022-09-12T06:58:58;95972.75;;;15.36;100.00
33454;BME280;39400;49.744;7.012;2022-09-12T07:01:30;95978.00;;;15.50;100.00
33454;BME280;39400;49.744;7.012;2022-09-12T07:03:59;95973.88;;;15.58;100.00
33454;BME280;39400;49.744;7.012;2022-09-12T07:06:29;95971.72;;;15.69;100.00
33454;BME280;39400;49.744;7.012;2022-09-12T07:08:59;95980.38;;;15.72;100.00
33454;BME280;39400;49.744;7.012;2022-09-12T07:11:30;95978.66;;;15.58;100.00
33454;BME280;39400;49.744;7.012;2022-09-12T07:14:01;95972.78;;;15.76;100.00
33454;BME280;39400;49.744;7.012;2022-09-12T07:16:29;95974.13;;;15.87;100.00
33454;BME280;39400;49.744;7.012;2022-09-12T07:18:59;95963.66;;;15.95;100.00
33454;BME280;39400;49.744;7.012;2022-09-12T07:21:28;95972.34;;;15.97;100.00
33454;BME280;39400;49.744;7.012;2022-09-12T07:23:56;95965.28;;;16.12;100.00
33454;BME280;39400;49.744;7.012;2022-09-12T07:26:26;95969.81;;;16.23;100.00
33454;BME280;39400;49.744;7.012;2022-09-12T07:28:54;95977.13;;;16.33;100.00
33454;BME280;39400;49.744;7.012;2022-09-12T07:31:41;95975.47;;;16.35;100.00
33454;BME280;39400;49.744;7.012;2022-09-12T07:34:09;95984.75;;;16.29;100.00
33454;BME280;39400;49.744;7.012;2022-09-12T07:36:36;95980.88;;;16.43;100.00
33454;BME280;39400;49.744;7.012;2022-09-12T07:39:03;95984.25;;;16.50;100.00
33454;BME280;39400;49.744;7.012;2022-09-12T07:41:32;95977.31;;;16.58;100.00
33454;BME280;39400;49.744;7.012;2022-09-12T07:44:02;95981.84;;;16.69;100.00
33454;BME280;39400;49.744;7.012;2022-09-12T07:46:30;95970.72;;;16.69;100.00
33454;BME280;39400;49.744;7.012;2022-09-12T07:48:59;95973.19;;;16.67;100.00
33454;BME280;39400;49.744;7.012;2022-09-12T07:51:27;95974.63;;;16.71;100.00
33454;BME280;39400;49.744;7.012;2022-09-12T07:53:55;95973.88;;;16.71;100.00
33454;BME280;39400;49.744;7.012;2022-09-12T07:56:23;95978.41;;;16.81;100.00
33454;BME280;39400;49.744;7.012;2022-09-12T07:58:56;95970.31;;;16.86;100.00
33454;BME280;39400;49.744;7.012;2022-09-12T08:01:23;95987.25;;;16.92;100.00
33454;BME280;39400;49.744;7.012;2022-09-12T08:03:56;95987.78;;;16.87;100.00
33454;BME280;39400;49.744;7.012;2022-09-12T08:06:25;95986.22;;;17.02;100.00
33454;BME280;39400;49.744;7.012;2022-09-12T08:08:54;95983.94;;;17.14;100.00
33454;BME280;39400;49.744;7.012;2022-09-12T08:11:23;95990.69;;;17.29;100.00
33454;BME280;39400;49.744;7.012;2022-09-12T08:13:51;95987.19;;;17.41;100.00
33454;BME280;39400;49.744;7.012;2022-09-12T08:16:26;95991.00;;;17.47;100.00
33454;BME280;39400;49.744;7.012;2022-09-12T08:18:54;95997.81;;;17.59;100.00
33454;BME280;39400;49.744;7.012;2022-09-12T08:21:24;95983.72;;;17.66;100.00
33454;BME280;39400;49.744;7.012;2022-09-12T08:24:02;95984.19;;;17.65;100.00
33454;BME280;39400;49.744;7.012;2022-09-12T08:26:32;95979.41;;;17.65;100.00
33454;BME280;39400;49.744;7.012;2022-09-12T08:29:00;95976.88;;;17.71;100.00
33454;BME280;39400;49.744;7.012;2022-09-12T08:31:27;95977.81;;;17.80;100.00
33454;BME280;39400;49.744;7.012;2022-09-12T08:33:55;95982.25;;;17.78;100.00
33454;BME280;39400;49.744;7.012;2022-09-12T08:36:25;95978.25;;;17.79;100.00
33454;BME280;39400;49.744;7.012;2022-09-12T08:38:54;95983.09;;;17.75;100.00
33454;BME280;39400;49.744;7.012;2022-09-12T08:41:37;95981.56;;;17.74;100.00
33454;BME280;39400;49.744;7.012;2022-09-12T08:49:39;95992.59;;;17.77;100.00
33454;BME280;39400;49.744;7.012;2022-09-12T08:54:55;95998.94;;;17.78;100.00
33454;BME280;39400;49.744;7.012;2022-09-12T08:57:22;95996.34;;;17.71;100.00
33454;BME280;39400;49.744;7.012;2022-09-12T08:59:50;95996.06;;;17.65;100.00
33454;BME280;39400;49.744;7.012;2022-09-12T09:05:21;95988.59;;;17.78;100.00
33454;BME280;39400;49.744;7.012;2022-09-12T09:16:33;95983.94;;;18.30;100.00
33454;BME280;39400;49.744;7.012;2022-09-12T09:19:02;95979.03;;;18.34;100.00
33454;BME280;39400;49.744;7.012;2022-09-12T09:21:33;95979.25;;;18.27;100.00
33454;BME280;39400;49.744;7.012;2022-09-12T09:24:05;95985.03;;;18.20;100.00
33454;BME280;39400;49.744;7.012;2022-09-12T09:26:47;95984.78;;;18.14;100.00
33454;BME280;39400;49.744;7.012;2022-09-12T09:29:19;95986.25;;;18.32;100.00
33454;BME280;39400;49.744;7.012;2022-09-12T09:31:55;95984.59;;;18.60;100.00
33454;BME280;39400;49.744;7.012;2022-09-12T09:34:26;95984.38;;;18.67;100.00
33454;BME280;39400;49.744;7.012;2022-09-12T09:37:17;95985.75;;;18.88;100.00
33454;BME280;39400;49.744;7.012;2022-09-12T09:39:56;95983.38;;;18.86;100.00
33454;BME280;39400;49.744;7.012;2022-09-12T09:42:42;95979.25;;;18.65;100.00
33454;BME280;39400;49.744;7.012;2022-09-12T09:45:13;95982.97;;;18.75;100.00
33454;BME280;39400;49.744;7.012;2022-09-12T09:47:48;95983.28;;;18.77;100.00
33454;BME280;39400;49.744;7.012;2022-09-12T09:50:18;95973.72;;;18.78;100.00
33454;BME280;39400;49.744;7.012;2022-09-12T09:52:46;95976.81;;;18.80;100.00
33454;BME280;39400;49.744;7.012;2022-09-12T09:55:17;95969.56;;;18.83;100.00
33454;BME280;39400;49.744;7.012;2022-09-12T09:57:46;95971.38;;;18.76;100.00
33454;BME280;39400;49.744;7.012;2022-09-12T10:00:28;95960.97;;;19.03;100.00
33454;BME280;39400;49.744;7.012;2022-09-12T10:05:51;95959.19;;;19.09;100.00
33454;BME280;39400;49.744;7.012;2022-09-12T10:08:28;95953.38;;;19.16;100.00
33454;BME280;39400;49.744;7.012;2022-09-12T10:13:33;95954.00;;;19.20;100.00
33454;BME280;39400;49.744;7.012;2022-09-12T10:16:03;95956.66;;;19.36;100.00
33454;BME280;39400;49.744;7.012;2022-09-12T10:18:33;95949.25;;;19.42;100.00
33454;BME280;39400;49.744;7.012;2022-09-12T10:21:05;95951.84;;;19.37;100.00
33454;BME280;39400;49.744;7.012;2022-09-12T10:23:38;95945.88;;;19.47;100.00
33454;BME280;39400;49.744;7.012;2022-09-12T10:26:12;95947.81;;;19.38;100.00
33454;BME280;39400;49.744;7.012;2022-09-12T10:28:52;95949.66;;;19.54;100.00
33454;BME280;39400;49.744;7.012;2022-09-12T10:31:26;95942.44;;;19.78;100.00
33454;BME280;39400;49.744;7.012;2022-09-12T10:33:58;95945.00;;;19.94;100.00
33454;BME280;39400;49.744;7.012;2022-09-12T10:36:35;95941.88;;;19.70;100.00
33454;BME280;39400;49.744;7.012;2022-09-12T10:39:03;95934.09;;;19.87;100.00
33454;BME280;39400;49.744;7.012;2022-09-12T10:41:37;95932.88;;;19.88;100.00
33454;BME280;39400;49.744;7.012;2022-09-12T10:44:15;95931.00;;;19.85;100.00
33454;BME280;39400;49.744;7.012;2022-09-12T10:46:42;95928.25;;;19.94;97.78
33454;BME280;39400;49.744;7.012;2022-09-12T10:51:48;95939.91;;;20.24;96.06
33454;BME280;39400;49.744;7.012;2022-09-12T10:54:21;95935.78;;;20.07;89.53
33454;BME280;39400;49.744;7.012;2022-09-12T11:02:26;95940.53;;;20.28;89.85
33454;BME280;39400;49.744;7.012;2022-09-12T11:27:03;95912.56;;;21.09;85.77
33454;BME280;39400;49.744;7.012;2022-09-12T11:35:31;95917.84;;;21.16;76.94
33454;BME280;39400;49.744;7.012;2022-09-12T11:43:42;95918.50;;;21.20;77.63
33454;BME280;39400;49.744;7.012;2022-09-12T11:46:34;95914.78;;;21.42;79.52
33454;BME280;39400;49.744;7.012;2022-09-12T12:00:31;95907.94;;;21.61;72.04
33454;BME280;39400;49.744;7.012;2022-09-12T12:03:15;95907.94;;;21.70;76.77
33454;BME280;39400;49.744;7.012;2022-09-12T12:05:54;95892.34;;;21.78;75.77
33454;BME280;39400;49.744;7.012;2022-09-12T12:08:24;95899.97;;;21.78;72.20
33454;BME280;39400;49.744;7.012;2022-09-12T12:10:58;95893.31;;;21.75;72.97
33454;BME280;39400;49.744;7.012;2022-09-12T12:13:29;95891.66;;;22.11;72.89
33454;BME280;39400;49.744;7.012;2022-09-12T12:16:01;95888.09;;;22.11;74.30
33454;BME280;39400;49.744;7.012;2022-09-12T12:18:32;95867.75;;;22.01;70.39
33454;BME280;39400;49.744;7.012;2022-09-12T12:29:34;95881.84;;;22.25;70.59
33454;BME280;39400;49.744;7.012;2022-09-12T12:34:44;95877.75;;;22.35;66.68
33454;BME280;39400;49.744;7.012;2022-09-12T12:50:12;95870.44;;;22.95;63.96
33454;BME280;39400;49.744;7.012;2022-09-12T12:52:50;95867.88;;;23.06;65.04
33454;BME280;39400;49.744;7.012;2022-09-12T12:55:23;95869.31;;;23.01;65.64
33454;BME280;39400;49.744;7.012;2022-09-12T12:57:56;95869.13;;;23.05;63.30
33454;BME280;39400;49.744;7.012;2022-09-12T13:00:31;95870.31;;;23.13;64.02
33454;BME280;39400;49.744;7.012;2022-09-12T13:05:55;95849.69;;;23.55;64.07
33454;BME280;39400;49.744;7.012;2022-09-12T13:08:31;95855.22;;;23.49;62.85
33454;BME280;39400;49.744;7.012;2022-09-12T13:11:46;95848.97;;;23.69;62.24
33454;BME280;39400;49.744;7.012;2022-09-12T13:13:51;95848.06;;;23.63;60.89
33454;BME280;39400;49.744;7.012;2022-09-12T13:16:39;95844.88;;;23.56;62.45
33454;BME280;39400;49.744;7.012;2022-09-12T13:19:25;95844.97;;;23.76;62.67
33454;BME280;39400;49.744;7.012;2022-09-12T13:22:05;95844.50;;;23.78;63.62
33454;BME280;39400;49.744;7.012;2022-09-12T13:24:33;95829.78;;;23.68;62.67
33454;BME280;39400;49.744;7.012;2022-09-12T13:27:22;95838.78;;;23.72;61.11
33454;BME280;39400;49.744;7.012;2022-09-12T13:30:07;95839.09;;;23.89;60.38
33454;BME280;39400;49.744;7.012;2022-09-12T13:32:35;95832.78;;;23.94;59.72
33454;BME280;39400;49.744;7.012;2022-09-12T13:35:21;95829.59;;;24.01;57.86
33454;BME280;39400;49.744;7.012;2022-09-12T13:38:02;95828.41;;;24.23;58.67
33454;BME280;39400;49.744;7.012;2022-09-12T13:43:40;95826.66;;;24.25;56.60
33454;BME280;39400;49.744;7.012;2022-09-12T13:46:08;95820.63;;;24.32;57.10
33454;BME280;39400;49.744;7.012;2022-09-12T13:48:39;95812.34;;;24.08;56.27
33454;BME280;39400;49.744;7.012;2022-09-12T13:51:07;95807.63;;;24.35;55.09
33454;BME280;39400;49.744;7.012;2022-09-12T13:53:46;95804.88;;;24.55;56.83
33454;BME280;39400;49.744;7.012;2022-09-12T13:56:18;95816.78;;;24.85;57.94
33454;BME280;39400;49.744;7.012;2022-09-12T13:58:59;95804.03;;;24.70;57.92
33454;BME280;39400;49.744;7.012;2022-09-12T14:01:44;95811.00;;;24.39;52.52
33454;BME280;39400;49.744;7.012;2022-09-12T14:04:25;95803.56;;;24.36;52.16
33454;BME280;39400;49.744;7.012;2022-09-12T14:07:16;95800.88;;;24.27;51.75
33454;BME280;39400;49.744;7.012;2022-09-12T14:09:55;95799.41;;;24.66;53.99
33454;BME280;39400;49.744;7.012;2022-09-12T14:12:25;95802.03;;;24.90;51.15
33454;BME280;39400;49.744;7.012;2022-09-12T14:14:53;95806.88;;;28.61;44.23
33454;BME280;39400;49.744;7.012;2022-09-12T14:17:24;95800.50;;;36.59;30.79
33454;BME280;39400;49.744;7.012;2022-09-12T14:19:55;95798.38;;;37.61;28.16
33454;BME280;39400;49.744;7.012;2022-09-12T14:22:25;95797.22;;;37.64;27.56
33454;BME280;39400;49.744;7.012;2022-09-12T14:24:56;95803.31;;;40.23;24.62
33454;BME280;39400;49.744;7.012;2022-09-12T14:27:37;95799.88;;;39.28;23.94
33454;BME280;39400;49.744;7.012;2022-09-12T14:36:39;95791.16;;;39.97;21.15
33454;BME280;39400;49.744;7.012;2022-09-12T14:38:49;95788.19;;;40.69;19.88
33454;BME280;39400;49.744;7.012;2022-09-12T14:41:23;95783.59;;;41.61;19.35
33454;BME280;39400;49.744;7.012;2022-09-12T14:43:56;95780.75;;;44.35;18.23
33454;BME280;39400;49.744;7.012;2022-09-12T14:46:38;95779.69;;;39.80;20.15
33454;BME280;39400;49.744;7.012;2022-09-12T14:49:06;95777.78;;;39.92;20.68
33454;BME280;39400;49.744;7.012;2022-09-12T14:51:47;95787.31;;;43.36;18.67
33454;BME280;39400;49.744;7.012;2022-09-12T14:54:34;95778.06;;;41.84;18.68
33454;BME280;39400;49.744;7.012;2022-09-12T14:57:05;95785.53;;;44.66;18.03
33454;BME280;39400;49.744;7.012;2022-09-12T14:59:39;95769.88;;;44.95;16.21
33454;BME280;39400;49.744;7.012;2022-09-12T15:04:41;95767.13;;;47.03;16.33
33454;BME280;39400;49.744;7.012;2022-09-12T15:10:05;95766.16;;;46.85;15.07
33454;BME280;39400;49.744;7.012;2022-09-12T15:12:33;95766.56;;;47.21;16.23
33454;BME280;39400;49.744;7.012;2022-09-12T15:15:20;95758.88;;;45.54;14.46
33454;BME280;39400;49.744;7.012;2022-09-12T15:17:47;95756.34;;;45.86;15.94
33454;BME280;39400;49.744;7.012;2022-09-12T15:20:14;95760.00;;;44.06;16.31
33454;BME280;39400;49.744;7.012;2022-09-12T15:22:42;95756.22;;;44.27;15.83
33454;BME280;39400;49.744;7.012;2022-09-12T15:25:11;95758.88;;;43.66;16.13
33454;BME280;39400;49.744;7.012;2022-09-12T15:27:38;95757.81;;;40.58;18.45
33454;BME280;39400;49.744;7.012;2022-09-12T15:30:09;95759.47;;;39.97;19.06
33454;BME280;39400;49.744;7.012;2022-09-12T15:32:42;95757.19;;;44.76;16.08
33454;BME280;39400;49.744;7.012;2022-09-12T15:35:18;95757.59;;;44.02;15.56
33454;BME280;39400;49.744;7.012;2022-09-12T15:37:45;95748.69;;;46.18;15.15
33454;BME280;39400;49.744;7.012;2022-09-12T15:40:13;95757.16;;;43.84;15.94
33454;BME280;39400;49.744;7.012;2022-09-12T15:42:40;95757.13;;;43.18;17.04
33454;BME280;39400;49.744;7.012;2022-09-12T15:45:18;95743.94;;;44.73;15.32
33454;BME280;39400;49.744;7.012;2022-09-12T15:47:46;95752.31;;;45.16;15.73
33454;BME280;39400;49.744;7.012;2022-09-12T15:50:13;95753.94;;;43.57;16.50
33454;BME280;39400;49.744;7.012;2022-09-12T15:52:41;95754.00;;;43.80;16.45
33454;BME280;39400;49.744;7.012;2022-09-12T15:55:20;95754.09;;;41.72;17.30
33454;BME280;39400;49.744;7.012;2022-09-12T15:57:48;95750.63;;;43.51;16.83
33454;BME280;39400;49.744;7.012;2022-09-12T16:00:16;95751.31;;;40.30;18.60
33454;BME280;39400;49.744;7.012;2022-09-12T16:02:46;95748.16;;;40.09;18.83
33454;BME280;39400;49.744;7.012;2022-09-12T16:05:18;95744.91;;;44.66;16.69
33454;BME280;39400;49.744;7.012;2022-09-12T16:07:45;95745.75;;;45.16;15.72
33454;BME280;39400;49.744;7.012;2022-09-12T16:10:14;95744.03;;;40.02;19.38